createdAt,value
2018-06-22T00:01:06.300Z,36.60
2018-06-22T00:03:33.195Z,36.50
2018-06-22T00:06:00.081Z,36.60
2018-06-22T00:08:26.977Z,36.70
2018-06-22T00:10:53.871Z,36.80
2018-06-22T00:15:54.555Z,36.10
2018-06-22T00:18:22.077Z,36.10
2018-06-22T00:20:49.612Z,35.90
2018-06-22T00:23:16.529Z,36.30
2018-06-22T00:25:43.479Z,36.30
2018-06-22T00:28:10.365Z,36.60
2018-06-22T00:30:37.286Z,36.70
2018-06-22T00:33:04.200Z,36.60
2018-06-22T00:35:31.129Z,36.90
2018-06-22T00:37:58.303Z,36.60
2018-06-22T00:40:25.230Z,36.40
2018-06-22T00:42:52.164Z,36.70
2018-06-22T00:45:19.086Z,37.20
2018-06-22T00:47:46.969Z,36.40
2018-06-22T00:50:14.952Z,36.60
2018-06-22T00:52:42.113Z,36.60
2018-06-22T00:55:09.018Z,36.70
2018-06-22T00:57:42.820Z,36.90
2018-06-22T01:00:09.759Z,37.30
2018-06-22T01:02:36.684Z,36.70
2018-06-22T01:05:03.621Z,36.80
2018-06-22T01:07:30.512Z,37.00
2018-06-22T01:09:57.445Z,36.60
2018-06-22T01:12:24.360Z,35.80
2018-06-22T01:14:52.256Z,35.90
2018-06-22T01:17:19.180Z,37.00
2018-06-22T01:19:46.128Z,36.70
2018-06-22T01:22:13.059Z,36.60
2018-06-22T01:24:40.007Z,36.20
2018-06-22T01:27:06.968Z,36.50
2018-06-22T01:29:33.912Z,36.50
2018-06-22T01:32:02.020Z,35.80
2018-06-22T01:34:29.314Z,35.90
2018-06-22T01:36:56.657Z,35.90
2018-06-22T01:39:23.640Z,36.20
2018-06-22T01:41:50.593Z,36.60
2018-06-22T01:44:17.762Z,36.80
2018-06-22T01:46:44.667Z,37.20
2018-06-22T01:49:11.590Z,37.70
2018-06-22T01:51:38.939Z,36.80
2018-06-22T01:54:05.857Z,37.00
2018-06-22T01:56:33.297Z,37.10
2018-06-22T01:59:00.796Z,37.10
2018-06-22T02:01:28.101Z,36.50
2018-06-22T02:03:55.128Z,36.70
2018-06-22T02:06:23.119Z,37.10
2018-06-22T02:08:50.011Z,37.40
2018-06-22T02:11:16.948Z,37.70
2018-06-22T02:13:45.001Z,37.70
2018-06-22T02:16:12.892Z,38.20
2018-06-22T02:18:40.021Z,38.40
2018-06-22T02:21:06.969Z,38.50
2018-06-22T02:23:33.900Z,38.30
2018-06-22T02:26:01.363Z,38.40
2018-06-22T02:28:28.975Z,38.80
2018-06-22T02:30:55.875Z,39.20
2018-06-22T02:33:23.489Z,39.10
2018-06-22T02:35:50.885Z,39.40
2018-06-22T02:38:17.789Z,39.90
2018-06-22T02:40:44.718Z,40.70
2018-06-22T02:43:11.671Z,40.60
2018-06-22T02:45:39.878Z,40.20
2018-06-22T02:48:07.062Z,40.20
2018-06-22T02:50:33.984Z,40.70
2018-06-22T02:53:01.488Z,40.90
2018-06-22T02:55:28.409Z,41.50
2018-06-22T02:57:55.381Z,41.70
2018-06-22T03:00:22.292Z,41.60
2018-06-22T03:02:49.253Z,41.60
2018-06-22T03:05:16.514Z,42.10
2018-06-22T03:07:43.951Z,42.20
2018-06-22T03:10:11.768Z,41.50
2018-06-22T03:12:39.342Z,42.10
2018-06-22T03:15:06.594Z,42.30
2018-06-22T03:17:33.844Z,42.30
2018-06-22T03:20:00.795Z,42.50
2018-06-22T03:22:27.913Z,42.80
2018-06-22T03:24:55.277Z,42.60
2018-06-22T03:27:22.546Z,43.00
2018-06-22T03:29:49.501Z,42.60
2018-06-22T03:32:16.497Z,43.00
2018-06-22T03:34:43.569Z,42.90
2018-06-22T03:37:11.025Z,42.70
2018-06-22T03:39:38.045Z,42.60
2018-06-22T03:42:05.181Z,42.80
2018-06-22T03:44:32.227Z,43.20
2018-06-22T03:46:59.769Z,43.10
2018-06-22T03:49:27.915Z,43.00
2018-06-22T03:51:54.832Z,43.60
2018-06-22T03:54:21.778Z,43.30
2018-06-22T03:59:15.563Z,43.10
2018-06-22T04:01:42.496Z,43.60
2018-06-22T04:04:09.430Z,43.50
2018-06-22T04:06:36.364Z,43.30
2018-06-22T04:09:04.890Z,43.20
2018-06-22T04:11:31.787Z,41.90
2018-06-22T04:13:58.712Z,42.40
2018-06-22T04:16:25.772Z,42.30
2018-06-22T04:18:52.675Z,41.70
2018-06-22T04:21:20.955Z,41.60
2018-06-22T04:23:47.881Z,40.90
2018-06-22T04:28:41.634Z,40.60
2018-06-22T04:31:08.640Z,41.00
2018-06-22T04:33:35.516Z,40.00
2018-06-22T04:36:02.432Z,39.70
2018-06-22T04:38:29.865Z,39.50
2018-06-22T04:40:56.775Z,39.90
2018-06-22T04:43:24.288Z,39.50
2018-06-22T04:45:51.200Z,39.00
2018-06-22T04:48:18.091Z,39.40
2018-06-22T04:50:45.058Z,38.70
2018-06-22T04:53:12.050Z,39.00
2018-06-22T04:55:41.288Z,39.10
2018-06-22T04:58:08.248Z,38.60
2018-06-22T05:00:35.197Z,38.90
2018-06-22T05:03:03.041Z,38.30
2018-06-22T05:05:29.965Z,39.00
2018-06-22T05:07:56.892Z,39.10
2018-06-22T05:10:24.383Z,39.10
2018-06-22T05:12:51.319Z,38.70
2018-06-22T05:15:18.225Z,37.90
2018-06-22T05:17:45.169Z,38.20
2018-06-22T05:20:12.578Z,38.60
2018-06-22T05:22:39.515Z,38.00
2018-06-22T05:25:06.477Z,38.70
2018-06-22T05:27:34.003Z,38.40
2018-06-22T05:30:00.899Z,38.30
2018-06-22T05:32:27.862Z,38.10
2018-06-22T05:34:55.404Z,38.70
2018-06-22T05:37:22.334Z,39.40
2018-06-22T05:39:49.377Z,38.50
2018-06-22T05:42:16.940Z,38.10
2018-06-22T05:44:43.863Z,38.60
2018-06-22T05:47:11.773Z,38.40
2018-06-22T05:49:38.747Z,38.30
2018-06-22T05:52:06.046Z,37.90
2018-06-22T05:54:32.970Z,38.00
2018-06-22T05:57:00.192Z,38.00
2018-06-22T05:59:27.104Z,38.20
2018-06-22T06:01:54.008Z,38.20
2018-06-22T06:04:20.932Z,37.60
2018-06-22T06:06:47.844Z,37.10
2018-06-22T06:11:41.784Z,36.50
2018-06-22T06:14:08.746Z,37.10
2018-06-22T06:16:36.159Z,36.30
2018-06-22T06:19:03.389Z,35.30
2018-06-22T06:21:30.318Z,35.30
2018-06-22T06:23:57.254Z,35.20
2018-06-22T06:26:25.372Z,35.70
2018-06-22T06:28:52.304Z,35.50
2018-06-22T06:31:19.715Z,34.60
2018-06-22T06:33:46.692Z,35.00
2018-06-22T06:36:14.273Z,34.30
2018-06-22T06:38:41.197Z,33.70
2018-06-22T06:41:08.725Z,34.50
2018-06-22T06:43:36.210Z,33.90
2018-06-22T06:46:03.136Z,33.10
2018-06-22T06:48:31.051Z,33.10
2018-06-22T06:50:58.432Z,33.20
2018-06-22T06:53:25.362Z,34.70
2018-06-22T06:55:52.289Z,34.40
2018-06-22T06:58:19.201Z,34.50
2018-06-22T07:00:47.476Z,34.80
2018-06-22T07:03:14.429Z,34.50
2018-06-22T07:05:41.842Z,34.30
2018-06-22T07:08:08.762Z,33.20
2018-06-22T07:10:35.707Z,33.60
2018-06-22T07:13:02.636Z,34.70
2018-06-22T07:15:34.124Z,34.50
2018-06-22T07:18:01.605Z,34.50
2018-06-22T07:20:28.609Z,33.60
2018-06-22T07:22:55.693Z,33.40
2018-06-22T07:25:22.609Z,35.00
2018-06-22T07:27:49.516Z,34.60
2018-06-22T07:30:16.444Z,35.40
2018-06-22T07:32:43.349Z,34.40
2018-06-22T07:35:10.944Z,33.80
2018-06-22T07:37:38.350Z,32.20
2018-06-22T07:40:05.353Z,32.80
2018-06-22T07:42:32.321Z,33.40
2018-06-22T07:44:59.232Z,33.70
2018-06-22T07:47:26.165Z,33.40
2018-06-22T07:49:53.127Z,32.60
2018-06-22T07:52:20.880Z,32.60
2018-06-22T07:54:48.420Z,32.30
2018-06-22T07:57:15.986Z,31.90
2018-06-22T07:59:42.873Z,32.30
2018-06-22T08:02:10.986Z,33.10
2018-06-22T08:04:37.878Z,33.60
2018-06-22T08:07:04.896Z,33.50
2018-06-22T08:09:31.830Z,34.10
2018-06-22T08:11:58.757Z,32.90
2018-06-22T08:14:26.929Z,32.50
2018-06-22T08:16:53.912Z,33.90
2018-06-22T08:19:20.824Z,33.60
2018-06-22T08:21:47.744Z,34.20
2018-06-22T08:24:14.673Z,33.40
2018-06-22T08:26:42.132Z,32.70
2018-06-22T08:29:09.053Z,33.00
2018-06-22T08:31:37.171Z,31.60
2018-06-22T08:34:04.418Z,33.60
2018-06-22T08:36:32.207Z,33.90
2018-06-22T08:38:59.799Z,34.10
2018-06-22T08:41:27.252Z,33.40
2018-06-22T08:43:54.960Z,34.10
2018-06-22T08:46:22.408Z,33.90
2018-06-22T08:48:50.355Z,34.80
2018-06-22T08:51:17.744Z,33.10
2018-06-22T08:53:44.661Z,33.30
2018-06-22T08:56:11.640Z,33.20
2018-06-22T08:58:38.524Z,34.00
2018-06-22T09:01:05.693Z,34.10
2018-06-22T09:03:32.843Z,33.30
2018-06-22T09:05:59.762Z,33.00
2018-06-22T09:08:26.685Z,32.80
2018-06-22T09:10:53.603Z,34.80
2018-06-22T09:13:20.561Z,34.70
2018-06-22T09:15:47.473Z,35.40
2018-06-22T09:18:14.411Z,34.50
2018-06-22T09:20:41.354Z,34.70
2018-06-22T09:23:09.105Z,34.70
2018-06-22T09:25:36.648Z,35.00
2018-06-22T09:28:03.549Z,35.20
2018-06-22T09:30:30.471Z,35.30
2018-06-22T09:32:57.445Z,34.00
2018-06-22T09:35:31.161Z,33.80
2018-06-22T09:37:58.077Z,33.50
2018-06-22T09:40:25.953Z,34.10
2018-06-22T09:42:52.931Z,34.10
2018-06-22T09:45:19.865Z,35.20
2018-06-22T09:47:47.493Z,35.60
2018-06-22T09:50:14.447Z,35.60
2018-06-22T09:52:41.360Z,33.30
2018-06-22T09:57:36.531Z,34.20
2018-06-22T10:00:03.508Z,35.00
2018-06-22T10:02:30.412Z,34.40
2018-06-22T10:04:57.925Z,34.90
2018-06-22T10:07:25.800Z,34.40
2018-06-22T10:09:52.764Z,34.50
2018-06-22T10:12:20.304Z,34.70
2018-06-22T10:14:47.755Z,35.10
2018-06-22T10:17:15.448Z,35.20
2018-06-22T10:19:42.415Z,34.90
2018-06-22T10:22:09.356Z,35.00
2018-06-22T10:24:36.306Z,36.00
2018-06-22T10:27:04.619Z,34.70
2018-06-22T10:29:31.833Z,34.70
2018-06-22T10:31:58.747Z,34.30
2018-06-22T10:34:25.675Z,35.20
2018-06-22T10:36:52.593Z,34.80
2018-06-22T10:39:21.506Z,34.30
2018-06-22T10:41:48.415Z,34.40
2018-06-22T10:44:15.356Z,34.10
2018-06-22T10:46:43.181Z,35.50
2018-06-22T10:49:10.106Z,35.90
2018-06-22T10:51:37.348Z,35.40
2018-06-22T10:54:04.322Z,35.50
2018-06-22T10:56:31.334Z,35.10
2018-06-22T10:58:58.288Z,34.90
2018-06-22T11:03:52.125Z,36.10
2018-06-22T11:06:19.072Z,35.60
2018-06-22T11:08:46.533Z,35.70
2018-06-22T11:11:13.675Z,35.00
2018-06-22T11:13:40.658Z,34.30
2018-06-22T11:16:07.603Z,34.50
2018-06-22T11:18:34.578Z,35.30
2018-06-22T11:21:02.237Z,34.80
2018-06-22T11:23:29.196Z,34.90
2018-06-22T11:25:56.168Z,35.90
2018-06-22T11:28:23.116Z,36.00
2018-06-22T11:30:50.115Z,35.90
2018-06-22T11:33:23.814Z,34.90
2018-06-22T11:35:50.836Z,34.90
2018-06-22T11:38:18.413Z,35.90
2018-06-22T11:40:46.247Z,35.90
2018-06-22T11:43:13.239Z,36.20
2018-06-22T11:45:40.190Z,36.90
2018-06-22T11:48:07.137Z,37.80
2018-06-22T11:50:34.132Z,39.60
2018-06-22T11:53:01.103Z,40.70
2018-06-22T11:55:28.375Z,42.10
2018-06-22T11:57:55.328Z,43.40
2018-06-22T12:00:22.305Z,45.10
2018-06-22T12:02:49.232Z,44.80
2018-06-22T12:05:17.198Z,45.20
2018-06-22T12:07:44.159Z,45.20
2018-06-22T12:10:11.107Z,45.90
2018-06-22T12:12:38.408Z,46.80
2018-06-22T12:15:05.361Z,47.30
2018-06-22T12:17:32.315Z,47.20
2018-06-22T12:19:59.260Z,48.70
2018-06-22T12:22:26.216Z,49.20
2018-06-22T12:24:53.153Z,49.60
2018-06-22T12:27:20.113Z,51.20
2018-06-22T12:29:47.230Z,51.60
2018-06-22T12:34:41.009Z,51.90
2018-06-22T12:37:07.936Z,53.60
2018-06-22T12:39:35.344Z,54.10
2018-06-22T12:42:02.326Z,54.10
2018-06-22T12:44:29.248Z,54.70
2018-06-22T12:46:56.448Z,55.10
2018-06-22T12:49:23.624Z,54.60
2018-06-22T12:51:50.537Z,55.30
2018-06-22T12:54:17.431Z,54.10
2018-06-22T12:56:44.330Z,53.80
2018-06-22T12:59:11.824Z,53.80
2018-06-22T13:01:38.742Z,54.00
2018-06-22T13:04:05.758Z,53.90
2018-06-22T13:06:32.763Z,54.20
2018-06-22T13:08:59.685Z,52.70
2018-06-22T13:11:26.604Z,52.10
2018-06-22T13:13:54.639Z,51.10
2018-06-22T13:16:21.858Z,52.20
2018-06-22T13:18:48.752Z,49.70
2018-06-22T13:21:15.728Z,50.70
2018-06-22T13:23:43.203Z,49.90
2018-06-22T13:26:10.136Z,49.10
2018-06-22T13:28:37.159Z,48.10
2018-06-22T13:31:04.157Z,47.80
2018-06-22T13:33:31.082Z,47.80
2018-06-22T13:35:57.972Z,45.80
2018-06-22T13:38:24.949Z,45.60
2018-06-22T13:40:52.944Z,46.70
2018-06-22T13:43:19.865Z,49.40
2018-06-22T13:45:46.764Z,51.30
2018-06-22T13:48:13.697Z,52.10
2018-06-22T13:50:40.604Z,53.60
2018-06-22T13:53:07.904Z,51.80
2018-06-22T13:55:34.825Z,49.00
2018-06-22T13:58:01.800Z,50.20
2018-06-22T14:00:28.836Z,50.10
2018-06-22T14:02:56.408Z,50.90
2018-06-22T14:05:29.596Z,53.60
2018-06-22T14:07:56.973Z,53.20
2018-06-22T14:10:24.004Z,53.30
2018-06-22T14:12:51.575Z,54.00
2018-06-22T14:15:19.091Z,53.60
2018-06-22T14:17:46.360Z,53.70
2018-06-22T14:20:14.095Z,53.60
2018-06-22T14:22:41.568Z,52.40
2018-06-22T14:25:08.494Z,51.70
2018-06-22T14:27:35.475Z,50.40
2018-06-22T14:30:02.762Z,49.30
2018-06-22T14:32:29.666Z,48.70
2018-06-22T14:34:57.254Z,48.90
2018-06-22T14:37:24.751Z,48.40
2018-06-22T14:39:51.740Z,49.50
2018-06-22T14:42:19.340Z,51.00
2018-06-22T14:44:46.257Z,51.00
2018-06-22T14:47:13.216Z,49.80
2018-06-22T14:49:40.112Z,49.60
2018-06-22T14:52:07.228Z,49.70
2018-06-22T14:54:39.701Z,51.30
2018-06-22T14:57:12.351Z,50.30
2018-06-22T14:59:44.976Z,53.20
2018-06-22T15:02:17.521Z,56.10
2018-06-22T15:04:50.429Z,57.00
2018-06-22T15:07:23.013Z,57.30
2018-06-22T15:09:49.932Z,58.40
2018-06-22T15:12:16.997Z,58.50
2018-06-22T15:14:43.952Z,59.60
2018-06-22T15:17:11.216Z,59.50
2018-06-22T15:19:38.204Z,59.50
2018-06-22T15:22:05.907Z,63.60
2018-06-22T15:24:32.847Z,63.20
2018-06-22T15:26:59.815Z,59.90
2018-06-22T15:29:26.745Z,59.40
2018-06-22T15:31:53.821Z,62.40
2018-06-22T15:34:26.508Z,59.80
2018-06-22T15:36:59.016Z,59.90
2018-06-22T15:39:32.236Z,59.70
2018-06-22T15:42:04.937Z,59.60
2018-06-22T15:44:37.529Z,60.00
2018-06-22T15:47:10.006Z,60.00
2018-06-22T15:49:42.620Z,59.70
2018-06-22T15:52:15.244Z,58.70
2018-06-22T15:54:47.909Z,59.20
2018-06-22T15:57:14.820Z,59.40
2018-06-22T15:59:41.760Z,60.00
2018-06-22T16:02:14.455Z,61.60
2018-06-22T16:04:41.393Z,62.80
2018-06-22T16:07:08.329Z,63.40
2018-06-22T16:09:40.940Z,67.40
2018-06-22T16:12:13.838Z,66.30
2018-06-22T16:15:47.142Z,65.40
2018-06-22T16:19:23.906Z,65.20
2018-06-22T16:21:56.252Z,66.60
2018-06-22T16:24:29.170Z,68.40
2018-06-22T16:27:01.820Z,69.90
2018-06-22T16:29:29.827Z,67.50
2018-06-22T16:31:57.618Z,66.00
2018-06-22T16:34:24.518Z,65.70
2018-06-22T16:36:51.467Z,66.40
2018-06-22T16:39:18.631Z,62.00
2018-06-22T16:41:45.564Z,62.50
2018-06-22T16:44:12.488Z,64.40
2018-06-22T16:46:40.198Z,61.70
2018-06-22T16:49:07.133Z,61.80
2018-06-22T16:51:34.135Z,61.30
2018-06-22T16:54:01.673Z,63.10
2018-06-22T16:56:28.650Z,63.20
2018-06-22T16:59:02.443Z,63.60
2018-06-22T17:01:29.465Z,64.50
2018-06-22T17:03:56.990Z,64.90
2018-06-22T17:06:24.240Z,65.20
2018-06-22T17:08:56.684Z,65.80
2018-06-22T17:11:29.676Z,65.90
2018-06-22T17:14:02.615Z,65.30
2018-06-22T17:16:35.371Z,64.50
2018-06-22T17:19:02.330Z,66.70
2018-06-22T17:21:29.372Z,66.90
2018-06-22T17:23:57.016Z,67.00
2018-06-22T17:26:23.979Z,66.60
2018-06-22T17:28:50.873Z,63.50
2018-06-22T17:31:17.874Z,66.30
2018-06-22T17:33:45.790Z,68.30
2018-06-22T17:36:13.489Z,69.10
2018-06-22T17:38:40.440Z,68.00
2018-06-22T17:41:07.647Z,68.90
2018-06-22T17:43:34.609Z,70.30
2018-06-22T17:46:01.737Z,70.10
2018-06-22T17:48:28.737Z,69.90
2018-06-22T17:50:55.652Z,71.00
2018-06-22T17:53:22.894Z,70.90
2018-06-22T17:55:49.967Z,71.50
2018-06-22T17:58:16.961Z,71.20
2018-06-22T18:00:50.185Z,69.70
2018-06-22T18:03:22.796Z,70.70
2018-06-22T18:05:55.594Z,70.30
2018-06-22T18:08:28.318Z,71.30
2018-06-22T18:11:00.971Z,71.30
2018-06-22T18:13:27.942Z,71.30
2018-06-22T18:15:55.455Z,72.40
2018-06-22T18:18:22.433Z,72.40
2018-06-22T18:20:50.301Z,72.30
2018-06-22T18:23:17.302Z,72.00
2018-06-22T18:25:45.263Z,71.20
2018-06-22T18:28:12.252Z,72.40
2018-06-22T18:30:40.262Z,72.00
2018-06-22T18:33:07.365Z,72.60
2018-06-22T18:38:02.892Z,75.00
2018-06-22T18:40:29.932Z,75.00
2018-06-22T18:42:56.843Z,72.70
2018-06-22T18:45:23.928Z,73.90
2018-06-22T18:47:51.768Z,73.90
2018-06-22T18:50:18.983Z,73.80
2018-06-22T18:52:52.684Z,74.10
2018-06-22T18:55:25.349Z,74.00
2018-06-22T18:57:58.040Z,74.50
2018-06-22T19:00:30.821Z,73.50
2018-06-22T19:03:03.371Z,73.80
2018-06-22T19:05:30.348Z,73.60
2018-06-22T19:07:58.227Z,73.30
2018-06-22T19:10:25.197Z,72.50
2018-06-22T19:12:52.973Z,74.30
2018-06-22T19:15:19.890Z,74.50
2018-06-22T19:17:46.969Z,74.40
2018-06-22T19:20:14.633Z,74.70
2018-06-22T19:22:41.576Z,74.90
2018-06-22T19:25:09.588Z,74.60
2018-06-22T19:27:37.443Z,75.10
2018-06-22T19:30:04.800Z,74.00
2018-06-22T19:32:31.804Z,74.00
2018-06-22T19:35:04.476Z,74.70
2018-06-22T19:37:31.435Z,75.60
2018-06-22T19:39:58.801Z,74.30
2018-06-22T19:42:26.560Z,75.00
2018-06-22T19:44:59.079Z,74.80
2018-06-22T19:47:31.857Z,74.60
2018-06-22T19:50:04.419Z,75.20
2018-06-22T19:52:37.111Z,75.30
2018-06-22T19:55:04.593Z,75.40
2018-06-22T19:57:31.808Z,76.90
2018-06-22T19:59:58.776Z,76.90
2018-06-22T20:02:26.440Z,76.80
2018-06-22T20:04:53.370Z,76.50
2018-06-22T20:07:20.708Z,76.50
2018-06-22T20:09:48.349Z,75.80
2018-06-22T20:12:15.322Z,76.70
2018-06-22T20:14:42.288Z,77.30
2018-06-22T20:17:09.276Z,77.30
2018-06-22T20:19:36.798Z,77.60
2018-06-22T20:22:03.771Z,78.10
2018-06-22T20:24:36.349Z,77.50
2018-06-22T20:27:03.268Z,77.30
2018-06-22T20:29:30.230Z,77.90
2018-06-22T20:31:57.717Z,78.40
2018-06-22T20:34:30.440Z,78.70
2018-06-22T20:37:03.733Z,78.90
2018-06-22T20:39:36.375Z,79.10
2018-06-22T20:42:09.082Z,79.20
2018-06-22T20:44:41.728Z,79.50
2018-06-22T20:47:14.333Z,79.40
2018-06-22T20:49:47.145Z,79.50
2018-06-22T20:52:14.209Z,79.20
2018-06-22T20:54:41.159Z,79.40
2018-06-22T20:57:08.120Z,80.00
2018-06-22T21:02:01.966Z,80.20
2018-06-22T21:04:29.001Z,80.00
2018-06-22T21:06:55.983Z,79.90
2018-06-22T21:09:23.026Z,79.20
2018-06-22T21:11:50.579Z,80.60
2018-06-22T21:14:18.146Z,80.00
2018-06-22T21:16:45.145Z,80.40
2018-06-22T21:19:12.138Z,80.50
2018-06-22T21:21:45.203Z,80.20
2018-06-22T21:24:12.196Z,81.00
2018-06-22T21:26:39.178Z,80.40
2018-06-22T21:29:11.927Z,80.00
2018-06-22T21:31:44.658Z,80.10
2018-06-22T21:34:17.183Z,80.40
2018-06-22T21:36:50.241Z,80.00
2018-06-22T21:39:17.220Z,80.20
2018-06-22T21:41:44.206Z,80.30
2018-06-22T21:44:11.216Z,81.00
2018-06-22T21:46:38.222Z,80.40
2018-06-22T21:49:05.185Z,81.00
2018-06-22T21:51:32.171Z,80.50
2018-06-22T21:53:59.290Z,80.80
2018-06-22T21:56:26.502Z,80.60
2018-06-22T21:58:54.284Z,80.50
2018-06-22T22:01:21.319Z,80.20
2018-06-22T22:03:48.365Z,80.80
2018-06-22T22:06:15.336Z,80.50
2018-06-22T22:08:42.256Z,80.40
2018-06-22T22:11:10.057Z,80.90
2018-06-22T22:13:38.561Z,80.90
2018-06-22T22:16:06.776Z,81.10
2018-06-22T22:18:34.364Z,82.00
2018-06-22T22:21:02.268Z,81.70
2018-06-22T22:23:29.375Z,80.80
2018-06-22T22:25:56.283Z,81.30
2018-06-22T22:28:24.088Z,81.10
2018-06-22T22:30:51.565Z,81.00
2018-06-22T22:33:18.493Z,81.00
2018-06-22T22:35:45.452Z,81.60
2018-06-22T22:38:12.384Z,82.10
2018-06-22T22:40:39.384Z,81.90
2018-06-22T22:43:06.303Z,83.20
2018-06-22T22:45:33.221Z,82.50
2018-06-22T22:48:01.206Z,82.30
2018-06-22T22:50:28.604Z,82.10
2018-06-22T22:52:55.563Z,81.90
2018-06-22T22:55:22.840Z,81.60
2018-06-22T22:57:49.768Z,83.10
2018-06-22T23:00:16.752Z,82.80
2018-06-22T23:02:43.684Z,82.30
2018-06-22T23:05:10.589Z,82.70
2018-06-22T23:07:38.190Z,82.80
2018-06-22T23:10:05.305Z,82.50
2018-06-22T23:12:32.220Z,82.20
2018-06-22T23:14:59.192Z,82.80
2018-06-22T23:17:26.099Z,82.00
2018-06-22T23:19:53.020Z,81.50
2018-06-22T23:22:25.514Z,81.60
2018-06-22T23:24:52.452Z,81.40
2018-06-22T23:27:20.320Z,81.40
2018-06-22T23:29:47.425Z,80.90
2018-06-22T23:32:14.340Z,81.40
2018-06-22T23:34:41.291Z,81.80
2018-06-22T23:37:08.234Z,81.80
2018-06-22T23:39:36.064Z,82.40
2018-06-22T23:42:03.016Z,82.50
2018-06-22T23:44:29.923Z,82.10
2018-06-22T23:46:56.820Z,81.60
2018-06-22T23:49:23.739Z,82.70
2018-06-22T23:51:51.326Z,82.30
2018-06-22T23:54:18.270Z,81.40
2018-06-22T23:56:45.180Z,81.30
2018-06-22T23:59:12.093Z,81.40
